Time;durP1;ratioP1;P1;durP2;ratioP2;P2;SDS_P1;SDS_P2;PMS_P1;PMS_P2;Temp;Humidity;BMP_temperature;BMP_pressure;BME280_temperature;BME280_humidity;BME280_pressure;Samples;Min_cycle;Max_cycle;Signal;HPM_P1;HPM_P2
2021/12/25 00:01:24;;;;;;;24.53;14.47;;;;;;;;;;5000003;28;20203;-80
2021/12/25 00:03:53;;;;;;;32.17;15.50;;;;;;;;;;4989563;28;20240;-79
2021/12/25 00:06:22;;;;;;;26.73;15.50;;;;;;;;;;4980556;28;20205;-80
2021/12/25 00:08:49;;;;;;;24.13;15.17;;;;;;;;;;4980106;28;20730;-80
2021/12/25 00:11:16;;;;;;;29.33;16.57;;;;;;;;;;4998729;28;20228;-80
2021/12/25 00:13:44;;;;;;;29.00;16.17;;;;;;;;;;4998957;28;20246;-79
2021/12/25 00:16:11;;;;;;;23.67;14.53;;;;;;;;;;4998874;28;20219;-80
2021/12/25 00:18:39;;;;;;;24.73;15.10;;;;;;;;;;4997632;28;20242;-80
2021/12/25 00:21:06;;;;;;;23.67;15.57;;;;;;;;;;4999963;28;20223;-80
2021/12/25 00:23:35;;;;;;;23.73;15.33;;;;;;;;;;4998742;28;20251;-80
2021/12/25 00:26:06;;;;;;;24.97;15.97;;;;;;;;;;4998926;28;20235;-79
2021/12/25 00:28:53;;;;;;;25.03;16.53;;;;;;;;;;4998973;28;20610;-80
2021/12/25 00:31:42;;;;;;;26.50;15.63;;;;;;;;;;4999392;28;20231;-80
2021/12/25 00:34:10;;;;;;;21.43;13.70;;;;;;;;;;4999320;28;20267;-80
2021/12/25 00:36:38;;;;;;;20.53;14.00;;;;;;;;;;4999436;28;20739;-80
2021/12/25 00:39:06;;;;;;;24.30;14.40;;;;;;;;;;4999097;28;20259;-80
2021/12/25 00:41:33;;;;;;;23.60;14.50;;;;;;;;;;4998423;28;20209;-80
2021/12/25 00:44:00;;;;;;;24.33;15.97;;;;;;;;;;4979970;28;20240;-81
2021/12/25 00:46:27;;;;;;;25.57;16.10;;;;;;;;;;4977616;28;20212;-80
2021/12/25 00:48:54;;;;;;;24.40;14.57;;;;;;;;;;4973105;28;20244;-81
2021/12/25 00:51:21;;;;;;;22.13;14.23;;;;;;;;;;4973367;28;20700;-81
2021/12/25 00:53:48;;;;;;;22.20;13.73;;;;;;;;;;4972954;28;20244;-80
2021/12/25 00:56:17;;;;;;;21.80;14.47;;;;;;;;;;4973308;28;20204;-80
2021/12/25 00:58:44;;;;;;;23.23;14.23;;;;;;;;;;4973514;28;20287;-81
2021/12/25 01:01:11;;;;;;;22.17;14.30;;;;;;;;;;4973648;28;20212;-80
2021/12/25 01:03:39;;;;;;;21.23;14.37;;;;;;;;;;4974207;28;20240;-80
2021/12/25 01:06:06;;;;;;;24.13;14.93;;;;;;;;;;4973578;28;20205;-80
2021/12/25 01:08:33;;;;;;;22.43;13.87;;;;;;;;;;4973985;28;20243;-81
2021/12/25 01:11:00;;;;;;;21.40;13.63;;;;;;;;;;4982976;28;20208;-80
2021/12/25 01:13:32;;;;;;;25.83;15.33;;;;;;;;;;4997306;28;20588;-80
2021/12/25 01:16:13;;;;;;;24.30;14.73;;;;;;;;;;4999204;28;20640;-80
2021/12/25 01:19:04;;;;;;;24.97;14.07;;;;;;;;;;4986326;28;20666;-80
2021/12/25 01:21:47;;;;;;;23.63;13.43;;;;;;;;;;4997547;28;20207;-79
2021/12/25 01:29:52;;;;;;;24.83;14.67;;;;;;;;;;4998889;28;20285;-80
2021/12/25 01:32:49;;;;;;;23.10;14.10;;;;;;;;;;4999058;28;20232;-80
2021/12/25 01:35:55;;;;;;;22.37;12.53;;;;;;;;;;4998676;28;20590;-80
2021/12/25 01:38:39;;;;;;;15.93;10.97;;;;;;;;;;4994269;28;20192;-80
2021/12/25 01:41:16;;;;;;;16.87;11.10;;;;;;;;;;4984023;28;20247;-80
2021/12/25 01:49:17;;;;;;;14.80;10.87;;;;;;;;;;4983583;28;20243;-80
2021/12/25 01:51:44;;;;;;;15.23;10.97;;;;;;;;;;4983979;28;20232;-80
2021/12/25 01:54:11;;;;;;;14.70;10.83;;;;;;;;;;4983848;28;20240;-80
2021/12/25 01:56:38;;;;;;;16.23;11.83;;;;;;;;;;4984281;28;20211;-80
2021/12/25 01:59:05;;;;;;;17.93;11.07;;;;;;;;;;4983251;28;20240;-80
2021/12/25 02:01:33;;;;;;;17.20;12.00;;;;;;;;;;4983410;28;20212;-80
2021/12/25 02:04:01;;;;;;;18.77;11.67;;;;;;;;;;4992895;28;20239;-79
2021/12/25 02:06:28;;;;;;;21.10;11.93;;;;;;;;;;5000897;28;20212;-80
2021/12/25 02:08:55;;;;;;;17.10;12.00;;;;;;;;;;5002981;28;20641;-79
2021/12/25 02:11:25;;;;;;;19.93;12.33;;;;;;;;;;5002475;28;20616;-79
2021/12/25 02:13:53;;;;;;;18.77;12.77;;;;;;;;;;5000779;28;20712;-80
2021/12/25 02:16:23;;;;;;;20.20;12.93;;;;;;;;;;4999694;28;20333;-80
2021/12/25 02:19:02;;;;;;;17.93;12.53;;;;;;;;;;5002409;28;20239;-80
2021/12/25 02:21:38;;;;;;;20.47;12.13;;;;;;;;;;5000000;28;20212;-80
2021/12/25 02:24:06;;;;;;;16.17;11.63;;;;;;;;;;5061529;23;20298;-84
2021/12/25 02:26:33;;;;;;;17.10;12.10;;;;;;;;;;5073743;28;20205;-84
2021/12/25 02:29:00;;;;;;;19.20;11.87;;;;;;;;;;5078166;28;20233;-83
2021/12/25 02:31:27;;;;;;;19.00;11.97;;;;;;;;;;5078909;28;20205;-84
2021/12/25 02:33:54;;;;;;;19.97;12.07;;;;;;;;;;5077839;28;20262;-84
2021/12/25 02:36:22;;;;;;;15.57;11.37;;;;;;;;;;5058244;28;20214;-84
2021/12/25 02:38:50;;;;;;;16.37;11.40;;;;;;;;;;5058879;28;20240;-84
2021/12/25 02:41:18;;;;;;;14.53;10.97;;;;;;;;;;5061535;28;20210;-85
2021/12/25 02:43:46;;;;;;;16.60;11.27;;;;;;;;;;5058092;28;20233;-85
2021/12/25 02:46:14;;;;;;;15.20;10.87;;;;;;;;;;5078041;28;20232;-86
2021/12/25 02:48:42;;;;;;;13.60;10.03;;;;;;;;;;5077971;28;20248;-85
2021/12/25 02:51:10;;;;;;;13.27;10.33;;;;;;;;;;5076520;28;20232;-83
2021/12/25 02:53:38;;;;;;;13.10;10.13;;;;;;;;;;5077890;28;20252;-84
2021/12/25 02:56:07;;;;;;;15.43;10.70;;;;;;;;;;5078563;28;20194;-84
2021/12/25 02:58:34;;;;;;;14.93;11.87;;;;;;;;;;5077672;28;20230;-83
2021/12/25 03:01:06;;;;;;;14.50;10.77;;;;;;;;;;5062474;28;20213;-85
2021/12/25 03:03:33;;;;;;;16.53;11.13;;;;;;;;;;5072960;28;20244;-83
2021/12/25 03:06:02;;;;;;;13.23;10.30;;;;;;;;;;5072124;28;20232;-86
2021/12/25 03:08:29;;;;;;;14.57;9.83;;;;;;;;;;5055990;28;20234;-85
2021/12/25 03:10:57;;;;;;;16.70;10.83;;;;;;;;;;5058091;28;20206;-85
2021/12/25 03:13:35;;;;;;;15.13;10.43;;;;;;;;;;5057427;28;20241;-85
2021/12/25 03:16:03;;;;;;;13.70;9.63;;;;;;;;;;5057784;28;20186;-86
2021/12/25 03:18:32;;;;;;;13.13;9.83;;;;;;;;;;5057648;28;20589;-85
2021/12/25 03:21:02;;;;;;;15.13;9.93;;;;;;;;;;5057001;28;20776;-83
2021/12/25 03:23:29;;;;;;;14.63;9.47;;;;;;;;;;5055771;28;20269;-85
2021/12/25 03:25:57;;;;;;;12.93;10.30;;;;;;;;;;5055688;28;20690;-85
2021/12/25 03:28:29;;;;;;;14.33;10.30;;;;;;;;;;5058709;28;20604;-85
2021/12/25 03:30:59;;;;;;;16.77;11.10;;;;;;;;;;5057869;28;20642;-86
2021/12/25 03:33:26;;;;;;;15.57;10.90;;;;;;;;;;5056899;28;20298;-85
2021/12/25 03:35:54;;;;;;;15.03;11.23;;;;;;;;;;5056437;28;20214;-84
2021/12/25 03:38:21;;;;;;;17.17;12.10;;;;;;;;;;5056160;28;20246;-85
2021/12/25 03:40:49;;;;;;;18.07;12.13;;;;;;;;;;5055786;28;20604;-85
2021/12/25 03:43:16;;;;;;;19.10;12.30;;;;;;;;;;5057071;28;20223;-85
2021/12/25 03:45:44;;;;;;;19.73;13.10;;;;;;;;;;5056819;28;20206;-85
2021/12/25 03:48:16;;;;;;;21.60;12.87;;;;;;;;;;5056373;28;20211;-85
2021/12/25 03:57:35;;;;;;;18.77;12.57;;;;;;;;;;5056269;28;20253;-85
2021/12/25 03:59:10;;;;;;;19.50;12.70;;;;;;;;;;5056211;28;20237;-85
2021/12/25 04:01:46;;;;;;;20.50;12.93;;;;;;;;;;5056724;28;20213;-85
2021/12/25 04:04:19;;;;;;;17.03;13.13;;;;;;;;;;5056129;28;20243;-86
2021/12/25 04:06:51;;;;;;;20.37;13.30;;;;;;;;;;5057975;28;20281;-85
2021/12/25 04:09:24;;;;;;;20.33;12.63;;;;;;;;;;5056151;28;20237;-85
2021/12/25 04:11:51;;;;;;;18.13;12.70;;;;;;;;;;5056522;28;20210;-85
2021/12/25 04:14:18;;;;;;;23.20;17.10;;;;;;;;;;5057320;28;20727;-86
2021/12/25 04:16:47;;;;;;;19.87;14.00;;;;;;;;;;5056977;28;20550;-84
2021/12/25 04:19:14;;;;;;;20.60;13.17;;;;;;;;;;5058115;28;20237;-84
2021/12/25 04:21:50;;;;;;;21.30;13.03;;;;;;;;;;5057302;28;20210;-84
2021/12/25 04:24:17;;;;;;;22.53;12.63;;;;;;;;;;5056077;28;20311;-84
2021/12/25 04:26:45;;;;;;;19.10;12.27;;;;;;;;;;5056517;28;20202;-85
2021/12/25 04:29:32;;;;;;;19.93;13.23;;;;;;;;;;5055529;28;20254;-86
2021/12/25 04:32:19;;;;;;;20.77;12.90;;;;;;;;;;5055312;28;20209;-86
2021/12/25 04:49:08;;;;;;;19.73;11.63;;;;;;;;;;5055605;28;20247;-87
2021/12/25 05:02:36;;;;;;;26.37;13.77;;;;;;;;;;5055748;28;20585;-85
2021/12/25 05:05:10;;;;;;;26.23;14.47;;;;;;;;;;5054856;28;20324;-84
2021/12/25 05:07:37;;;;;;;23.80;14.40;;;;;;;;;;5057721;28;20574;-86
2021/12/25 05:10:05;;;;;;;27.30;14.97;;;;;;;;;;5054362;28;20241;-85
2021/12/25 05:12:32;;;;;;;21.83;13.17;;;;;;;;;;5056680;28;20236;-86
2021/12/25 05:14:59;;;;;;;29.57;14.43;;;;;;;;;;5054718;28;20293;-85
2021/12/25 05:17:26;;;;;;;25.53;14.00;;;;;;;;;;5055279;28;20282;-84
2021/12/25 05:19:55;;;;;;;28.37;13.37;;;;;;;;;;5053603;28;20238;-85
2021/12/25 05:22:23;;;;;;;23.93;13.23;;;;;;;;;;5054218;28;20252;-85
2021/12/25 05:24:51;;;;;;;38.37;14.70;;;;;;;;;;5053648;28;20244;-86
2021/12/25 05:27:18;;;;;;;31.87;16.27;;;;;;;;;;5055394;28;20735;-86
2021/12/25 05:29:46;;;;;;;45.73;25.67;;;;;;;;;;5053590;28;20257;-85
2021/12/25 05:32:14;;;;;;;26.93;15.33;;;;;;;;;;5052570;28;20368;-85
2021/12/25 05:34:41;;;;;;;21.67;12.67;;;;;;;;;;5051838;28;20240;-84
2021/12/25 05:37:08;;;;;;;19.03;11.60;;;;;;;;;;5052563;28;20206;-85
2021/12/25 05:39:38;;;;;;;20.53;11.97;;;;;;;;;;5051889;28;20706;-85
2021/12/25 05:42:05;;;;;;;23.57;13.10;;;;;;;;;;5052272;28;20210;-84
2021/12/25 05:44:32;;;;;;;20.43;12.30;;;;;;;;;;5051946;28;20240;-85
2021/12/25 05:46:59;;;;;;;18.60;11.80;;;;;;;;;;5052552;28;20210;-85
2021/12/25 05:49:26;;;;;;;17.97;11.87;;;;;;;;;;5051494;28;20775;-85
2021/12/25 05:51:53;;;;;;;20.30;11.07;;;;;;;;;;5051887;28;20198;-84
2021/12/25 05:54:20;;;;;;;19.07;11.47;;;;;;;;;;5051365;28;20237;-85
2021/12/25 05:56:49;;;;;;;23.13;12.37;;;;;;;;;;5052022;28;20198;-84
2021/12/25 05:59:16;;;;;;;22.13;11.30;;;;;;;;;;5051250;28;20238;-85
2021/12/25 06:01:43;;;;;;;20.43;10.67;;;;;;;;;;5052002;28;20206;-85
2021/12/25 06:04:10;;;;;;;20.47;10.93;;;;;;;;;;5054298;28;20237;-85
2021/12/25 06:06:37;;;;;;;24.80;11.60;;;;;;;;;;5052435;28;20305;-85
2021/12/25 06:09:07;;;;;;;21.20;11.37;;;;;;;;;;5051433;28;20235;-85
2021/12/25 06:11:34;;;;;;;22.23;11.60;;;;;;;;;;5051689;28;20259;-83
2021/12/25 06:14:09;;;;;;;22.47;11.93;;;;;;;;;;5051417;28;20245;-85
2021/12/25 06:16:37;;;;;;;23.73;12.03;;;;;;;;;;5051969;28;20221;-85
2021/12/25 06:19:04;;;;;;;21.90;11.37;;;;;;;;;;5051687;28;20241;-85
2021/12/25 06:21:31;;;;;;;20.77;10.23;;;;;;;;;;5051575;28;20666;-83
2021/12/25 06:24:01;;;;;;;18.90;8.53;;;;;;;;;;5051382;28;20245;-82
2021/12/25 06:26:28;;;;;;;13.13;7.80;;;;;;;;;;5055326;28;20210;-83
2021/12/25 06:28:55;;;;;;;12.43;7.13;;;;;;;;;;5055356;28;20671;-84
2021/12/25 06:31:24;;;;;;;11.93;7.07;;;;;;;;;;5055731;28;20191;-84
2021/12/25 06:33:51;;;;;;;12.57;5.90;;;;;;;;;;5055146;28;20615;-84
2021/12/25 06:36:18;;;;;;;10.07;6.77;;;;;;;;;;5055669;28;20213;-84
2021/12/25 06:38:45;;;;;;;13.40;7.23;;;;;;;;;;5054931;28;20653;-84
2021/12/25 06:41:14;;;;;;;10.53;6.77;;;;;;;;;;5055301;28;20717;-83
2021/12/25 06:43:41;;;;;;;12.50;7.50;;;;;;;;;;5054498;28;22556;-84
2021/12/25 06:46:08;;;;;;;12.80;8.13;;;;;;;;;;5055862;28;20281;-84
2021/12/25 06:48:37;;;;;;;12.50;7.80;;;;;;;;;;5054893;28;20245;-84
2021/12/25 06:51:04;;;;;;;18.03;8.40;;;;;;;;;;5055271;28;20210;-84
2021/12/25 06:53:31;;;;;;;13.70;8.60;;;;;;;;;;5056421;28;20245;-84
2021/12/25 06:55:58;;;;;;;14.47;7.97;;;;;;;;;;5054775;28;20603;-84
2021/12/25 06:58:25;;;;;;;13.10;9.13;;;;;;;;;;5054465;28;20267;-83
2021/12/25 07:00:52;;;;;;;15.43;9.10;;;;;;;;;;5055012;28;20599;-84
2021/12/25 07:03:19;;;;;;;15.30;8.87;;;;;;;;;;5033917;28;20731;-82
2021/12/25 07:05:48;;;;;;;13.87;9.17;;;;;;;;;;5048668;28;20541;-83
2021/12/25 07:08:15;;;;;;;13.63;8.40;;;;;;;;;;5044688;28;20206;-83
2021/12/25 07:10:42;;;;;;;14.33;8.67;;;;;;;;;;5056307;28;20213;-83
2021/12/25 07:13:16;;;;;;;12.57;8.33;;;;;;;;;;5055343;28;20218;-83
2021/12/25 07:15:43;;;;;;;16.23;10.00;;;;;;;;;;5055439;28;20205;-83
2021/12/25 07:18:10;;;;;;;13.57;9.40;;;;;;;;;;5055416;28;20198;-82
2021/12/25 07:20:37;;;;;;;11.73;8.80;;;;;;;;;;5054678;28;20277;-84
2021/12/25 07:23:05;;;;;;;11.20;8.50;;;;;;;;;;5053093;28;20245;-83
2021/12/25 07:25:32;;;;;;;12.73;9.00;;;;;;;;;;5035021;28;20264;-83
2021/12/25 07:27:59;;;;;;;12.63;8.50;;;;;;;;;;5042798;28;20209;-83
2021/12/25 07:30:26;;;;;;;11.03;8.40;;;;;;;;;;5054832;28;20218;-83
2021/12/25 07:32:54;;;;;;;13.80;8.73;;;;;;;;;;5054142;28;20228;-84
2021/12/25 07:35:21;;;;;;;11.97;8.63;;;;;;;;;;5054235;28;20252;-83
2021/12/25 07:37:48;;;;;;;12.70;8.43;;;;;;;;;;5054501;28;20202;-84
2021/12/25 07:40:16;;;;;;;9.83;8.10;;;;;;;;;;5054681;28;20639;-83
2021/12/25 07:42:43;;;;;;;12.93;7.73;;;;;;;;;;5054402;28;20217;-84
2021/12/25 07:45:11;;;;;;;10.23;7.57;;;;;;;;;;5054184;28;20234;-83
2021/12/25 07:47:41;;;;;;;11.97;7.63;;;;;;;;;;5055065;28;20297;-84
2021/12/25 07:50:09;;;;;;;9.70;7.10;;;;;;;;;;5054308;28;20234;-83
2021/12/25 07:52:36;;;;;;;9.43;7.07;;;;;;;;;;5056912;28;20234;-83
2021/12/25 07:55:03;;;;;;;8.63;6.77;;;;;;;;;;5057171;28;20245;-83
2021/12/25 07:57:31;;;;;;;8.20;6.27;;;;;;;;;;5056801;28;20221;-84
2021/12/25 07:59:58;;;;;;;7.73;6.10;;;;;;;;;;5055819;28;20700;-84
2021/12/25 08:02:26;;;;;;;9.20;6.00;;;;;;;;;;5041933;28;20677;-84
2021/12/25 08:04:53;;;;;;;7.97;6.23;;;;;;;;;;5043416;28;20234;-83
2021/12/25 08:07:20;;;;;;;8.83;6.07;;;;;;;;;;5055153;28;20212;-85
2021/12/25 08:09:47;;;;;;;7.70;5.87;;;;;;;;;;5055104;28;20551;-86
2021/12/25 08:12:14;;;;;;;6.87;5.70;;;;;;;;;;5055293;28;20202;-84
2021/12/25 08:14:42;;;;;;;7.73;6.20;;;;;;;;;;5045728;28;20232;-85
2021/12/25 08:17:09;;;;;;;5.63;5.03;;;;;;;;;;5047666;28;20194;-83
2021/12/25 08:19:37;;;;;;;6.70;5.27;;;;;;;;;;5048760;28;20276;-84
2021/12/25 08:22:04;;;;;;;6.13;5.43;;;;;;;;;;5048486;28;20198;-83
2021/12/25 08:24:32;;;;;;;5.60;4.70;;;;;;;;;;5052439;28;20277;-84
2021/12/25 08:27:04;;;;;;;8.27;5.50;;;;;;;;;;5050517;28;20262;-84
2021/12/25 08:29:31;;;;;;;6.10;5.50;;;;;;;;;;5052925;28;20250;-84
2021/12/25 08:32:00;;;;;;;6.20;5.47;;;;;;;;;;5050763;28;20221;-84
2021/12/25 08:34:27;;;;;;;5.70;5.10;;;;;;;;;;5057329;28;20237;-84
2021/12/25 08:36:54;;;;;;;6.43;5.60;;;;;;;;;;5041046;28;20238;-83
2021/12/25 08:39:21;;;;;;;6.20;5.13;;;;;;;;;;5038838;28;20245;-84
2021/12/25 08:41:48;;;;;;;5.90;5.20;;;;;;;;;;5043513;28;20217;-85
2021/12/25 08:44:32;;;;;;;6.17;5.40;;;;;;;;;;5054062;28;20233;-85
2021/12/25 08:47:00;;;;;;;7.43;5.40;;;;;;;;;;5046700;28;20226;-85
2021/12/25 08:49:29;;;;;;;6.67;5.17;;;;;;;;;;5040863;28;20981;-85
2021/12/25 08:51:56;;;;;;;5.83;5.10;;;;;;;;;;5046036;28;20242;-85
2021/12/25 08:54:23;;;;;;;6.07;5.40;;;;;;;;;;5052495;28;20230;-85
2021/12/25 08:56:51;;;;;;;9.70;5.13;;;;;;;;;;5055702;28;20215;-84
2021/12/25 08:59:18;;;;;;;5.70;4.60;;;;;;;;;;5046758;28;20233;-85
2021/12/25 09:01:46;;;;;;;5.30;4.80;;;;;;;;;;5047599;28;20212;-84
2021/12/25 09:04:15;;;;;;;5.10;4.60;;;;;;;;;;5053270;28;20244;-81
2021/12/25 09:06:42;;;;;;;5.07;4.53;;;;;;;;;;5052827;28;20206;-83
2021/12/25 09:09:09;;;;;;;5.83;4.33;;;;;;;;;;5052303;28;20245;-84
2021/12/25 09:11:37;;;;;;;4.87;4.37;;;;;;;;;;5053863;28;20210;-84
2021/12/25 09:14:05;;;;;;;4.80;4.33;;;;;;;;;;5039334;28;20659;-82
2021/12/25 09:16:32;;;;;;;4.80;4.40;;;;;;;;;;5060090;28;20209;-80
2021/12/25 09:18:59;;;;;;;4.40;4.00;;;;;;;;;;5044909;28;20241;-80
2021/12/25 09:21:28;;;;;;;4.80;4.40;;;;;;;;;;5053886;28;20201;-81
2021/12/25 09:23:55;;;;;;;4.33;3.93;;;;;;;;;;5066583;28;20233;-80
2021/12/25 09:26:23;;;;;;;4.57;3.97;;;;;;;;;;5067119;28;20208;-80
2021/12/25 09:28:50;;;;;;;4.37;3.97;;;;;;;;;;5066441;28;20234;-81
2021/12/25 09:31:19;;;;;;;4.73;3.60;;;;;;;;;;5066940;28;20235;-81
2021/12/25 09:33:46;;;;;;;3.97;3.57;;;;;;;;;;5065203;28;20234;-81
2021/12/25 09:36:13;;;;;;;4.67;3.57;;;;;;;;;;5065406;28;20217;-80
2021/12/25 09:38:41;;;;;;;3.43;3.13;;;;;;;;;;5065934;28;20236;-82
2021/12/25 09:41:08;;;;;;;3.50;3.20;;;;;;;;;;5069015;28;20212;-82
2021/12/25 09:43:36;;;;;;;3.63;3.33;;;;;;;;;;5067056;28;20238;-80
2021/12/25 09:46:04;;;;;;;5.90;3.47;;;;;;;;;;5067524;28;20308;-81
2021/12/25 09:48:31;;;;;;;3.70;3.40;;;;;;;;;;5066946;28;20244;-81
2021/12/25 09:50:58;;;;;;;3.47;3.17;;;;;;;;;;5067846;28;20209;-81
2021/12/25 09:53:26;;;;;;;3.77;3.47;;;;;;;;;;5067418;28;20245;-80
2021/12/25 09:55:55;;;;;;;3.30;3.00;;;;;;;;;;5067832;28;20233;-81
2021/12/25 09:58:23;;;;;;;3.47;3.00;;;;;;;;;;5066798;28;20244;-80
2021/12/25 10:00:51;;;;;;;3.67;3.33;;;;;;;;;;5081096;28;20545;-80
2021/12/25 10:03:18;;;;;;;3.47;3.17;;;;;;;;;;5090490;28;20292;-81
2021/12/25 10:05:46;;;;;;;3.50;3.20;;;;;;;;;;5090591;28;20205;-82
2021/12/25 10:08:17;;;;;;;3.93;3.47;;;;;;;;;;5091554;28;20204;-82
2021/12/25 10:10:45;;;;;;;3.90;3.60;;;;;;;;;;5091179;28;20213;-80
2021/12/25 10:13:21;;;;;;;3.80;3.50;;;;;;;;;;5090161;28;20223;-81
2021/12/25 10:15:48;;;;;;;4.90;3.30;;;;;;;;;;5091078;28;20205;-81
2021/12/25 10:18:15;;;;;;;3.40;3.10;;;;;;;;;;5090402;28;20205;-82
2021/12/25 10:20:42;;;;;;;4.13;3.30;;;;;;;;;;5090752;28;20209;-81
2021/12/25 10:23:12;;;;;;;3.43;3.13;;;;;;;;;;5089552;28;20236;-82
2021/12/25 10:25:44;;;;;;;2.77;2.57;;;;;;;;;;5090718;28;20255;-80
2021/12/25 10:28:12;;;;;;;2.93;2.50;;;;;;;;;;5090415;28;20201;-81
2021/12/25 10:30:51;;;;;;;2.70;2.50;;;;;;;;;;5088486;28;20212;-80
2021/12/25 10:33:29;;;;;;;2.90;2.70;;;;;;;;;;5086366;28;20415;-81
2021/12/25 10:35:57;;;;;;;2.60;2.40;;;;;;;;;;5087191;28;20236;-80
2021/12/25 10:38:24;;;;;;;2.30;2.07;;;;;;;;;;5085357;28;20377;-80
2021/12/25 10:41:02;;;;;;;2.20;2.10;;;;;;;;;;5083875;28;20237;-80
2021/12/25 10:43:29;;;;;;;2.20;2.10;;;;;;;;;;5079610;28;20244;-80
2021/12/25 10:46:02;;;;;;;2.33;2.20;;;;;;;;;;5079598;28;20223;-80
2021/12/25 10:48:30;;;;;;;2.17;2.07;;;;;;;;;;5077635;28;20332;-80
2021/12/25 10:50:57;;;;;;;2.53;2.40;;;;;;;;;;5076687;28;20567;-80
2021/12/25 10:53:26;;;;;;;2.10;2.00;;;;;;;;;;5075916;28;20300;-80
2021/12/25 10:55:53;;;;;;;2.50;2.30;;;;;;;;;;5076522;28;20545;-79
2021/12/25 10:58:22;;;;;;;2.17;2.07;;;;;;;;;;5080618;28;20205;-80
2021/12/25 11:00:54;;;;;;;2.73;2.30;;;;;;;;;;5067567;28;20205;-80
2021/12/25 11:03:28;;;;;;;2.60;2.40;;;;;;;;;;5057063;28;20664;-80
2021/12/25 11:05:55;;;;;;;2.50;2.40;;;;;;;;;;5057136;28;20205;-80
2021/12/25 11:08:24;;;;;;;2.83;2.53;;;;;;;;;;5056936;28;20325;-80
2021/12/25 11:10:53;;;;;;;2.60;2.40;;;;;;;;;;5055982;28;20205;-81
2021/12/25 11:13:21;;;;;;;2.80;2.60;;;;;;;;;;5054448;28;20229;-80
2021/12/25 11:15:48;;;;;;;2.77;2.57;;;;;;;;;;5056109;28;20282;-80
2021/12/25 11:18:16;;;;;;;2.10;2.00;;;;;;;;;;5055386;28;20674;-80
2021/12/25 11:20:46;;;;;;;2.80;2.40;;;;;;;;;;5055694;28;20218;-80
2021/12/25 11:23:14;;;;;;;2.77;2.57;;;;;;;;;;5055796;28;20325;-80
2021/12/25 11:25:42;;;;;;;2.80;2.60;;;;;;;;;;5055294;28;20199;-80
2021/12/25 11:28:10;;;;;;;2.80;2.60;;;;;;;;;;5055085;28;20209;-80
2021/12/25 11:30:39;;;;;;;2.80;2.60;;;;;;;;;;5055545;28;20240;-80
2021/12/25 11:33:06;;;;;;;4.07;2.50;;;;;;;;;;5054048;28;20705;-79
2021/12/25 11:35:34;;;;;;;2.23;2.13;;;;;;;;;;5057006;28;20229;-80
2021/12/25 11:38:04;;;;;;;2.63;2.43;;;;;;;;;;5061699;28;20247;-80
2021/12/25 11:40:33;;;;;;;2.57;2.40;;;;;;;;;;5061597;28;20209;-79
2021/12/25 11:43:03;;;;;;;2.10;2.00;;;;;;;;;;5053610;28;20268;-79
2021/12/25 11:45:33;;;;;;;2.73;2.47;;;;;;;;;;5053257;28;20225;-80
2021/12/25 11:48:01;;;;;;;2.20;2.10;;;;;;;;;;5053788;28;20244;-79
2021/12/25 11:50:39;;;;;;;2.20;2.10;;;;;;;;;;5053597;28;20245;-80
2021/12/25 11:53:15;;;;;;;2.80;2.47;;;;;;;;;;5053192;28;20228;-79
2021/12/25 11:58:39;;;;;;;2.20;2.10;;;;;;;;;;5036072;28;20240;-80
2021/12/25 12:01:17;;;;;;;3.20;2.00;;;;;;;;;;5055105;28;20194;-80
2021/12/25 12:03:46;;;;;;;2.23;2.13;;;;;;;;;;5052870;28;20646;-79
2021/12/25 12:06:14;;;;;;;2.30;2.07;;;;;;;;;;5054509;28;20673;-79
2021/12/25 12:08:59;;;;;;;2.40;2.20;;;;;;;;;;5061284;28;20234;-80
2021/12/25 12:11:29;;;;;;;2.60;2.37;;;;;;;;;;5068912;28;20213;-80
2021/12/25 12:14:11;;;;;;;2.30;2.20;;;;;;;;;;5069413;28;20238;-81
2021/12/25 12:16:39;;;;;;;2.20;2.10;;;;;;;;;;5069869;28;20225;-82
2021/12/25 12:19:06;;;;;;;3.90;2.30;;;;;;;;;;5060572;28;20725;-80
2021/12/25 12:21:40;;;;;;;2.70;2.50;;;;;;;;;;5054757;28;20206;-80
2021/12/25 12:24:40;;;;;;;2.40;2.30;;;;;;;;;;5054031;28;20237;-80
2021/12/25 12:27:09;;;;;;;2.90;2.70;;;;;;;;;;5054742;28;20213;-80
2021/12/25 12:29:42;;;;;;;2.53;2.40;;;;;;;;;;5054334;28;20287;-80
2021/12/25 12:32:29;;;;;;;2.20;2.10;;;;;;;;;;5067519;28;20215;-81
2021/12/25 12:34:56;;;;;;;2.60;2.40;;;;;;;;;;5060860;28;20237;-80
2021/12/25 12:37:27;;;;;;;3.27;2.40;;;;;;;;;;5069011;28;20214;-81
2021/12/25 12:40:13;;;;;;;2.90;2.70;;;;;;;;;;5067884;28;20664;-80
2021/12/25 12:42:53;;;;;;;2.73;2.53;;;;;;;;;;5068489;28;20226;-81
2021/12/25 12:45:21;;;;;;;2.87;2.20;;;;;;;;;;5068734;28;20235;-80
2021/12/25 12:48:02;;;;;;;2.80;2.60;;;;;;;;;;5069174;28;20209;-81
2021/12/25 12:50:31;;;;;;;2.60;2.40;;;;;;;;;;5068444;28;20244;-81
2021/12/25 12:53:00;;;;;;;2.53;2.33;;;;;;;;;;5068440;28;20264;-80
2021/12/25 12:55:28;;;;;;;2.20;2.10;;;;;;;;;;5068247;28;20268;-80
2021/12/25 12:58:08;;;;;;;2.57;2.47;;;;;;;;;;5068269;28;20224;-80
2021/12/25 13:00:35;;;;;;;2.90;2.70;;;;;;;;;;5063941;28;20228;-80
2021/12/25 13:03:03;;;;;;;4.00;2.37;;;;;;;;;;5067514;28;20237;-81
2021/12/25 13:05:33;;;;;;;2.60;2.37;;;;;;;;;;5068249;28;20220;-80
2021/12/25 13:08:01;;;;;;;2.40;2.30;;;;;;;;;;5060744;28;20584;-81
2021/12/25 13:10:35;;;;;;;2.57;2.40;;;;;;;;;;5053090;28;20235;-80
2021/12/25 13:13:09;;;;;;;2.60;2.30;;;;;;;;;;5052468;28;20275;-80
2021/12/25 13:15:36;;;;;;;2.57;2.47;;;;;;;;;;5052063;28;20229;-80
2021/12/25 13:18:04;;;;;;;2.60;2.40;;;;;;;;;;5052295;28;20232;-79
2021/12/25 13:20:36;;;;;;;2.77;2.10;;;;;;;;;;5052479;28;20209;-79
2021/12/25 13:23:04;;;;;;;2.40;2.30;;;;;;;;;;5051530;28;20248;-80
2021/12/25 13:25:31;;;;;;;2.50;2.40;;;;;;;;;;5051739;28;20233;-79
2021/12/25 13:27:59;;;;;;;2.70;2.50;;;;;;;;;;5051564;28;20216;-79
2021/12/25 13:30:28;;;;;;;2.77;2.57;;;;;;;;;;5051978;28;20226;-80
2021/12/25 13:32:55;;;;;;;2.80;2.60;;;;;;;;;;5051846;28;20236;-79
2021/12/25 13:35:24;;;;;;;3.27;2.93;;;;;;;;;;5054747;28;20233;-82
2021/12/25 13:37:58;;;;;;;2.87;2.60;;;;;;;;;;5062093;28;20215;-79
2021/12/25 13:40:25;;;;;;;2.43;2.30;;;;;;;;;;5053002;28;20241;-79
2021/12/25 13:42:52;;;;;;;2.83;2.63;;;;;;;;;;5051009;28;20321;-79
2021/12/25 13:45:20;;;;;;;3.10;2.80;;;;;;;;;;5051791;28;20235;-79
2021/12/25 13:47:48;;;;;;;2.53;2.43;;;;;;;;;;5053905;28;20211;-79
2021/12/25 13:50:16;;;;;;;3.10;2.90;;;;;;;;;;5051142;28;20759;-79
2021/12/25 13:52:46;;;;;;;3.53;2.60;;;;;;;;;;5053901;28;20226;-79
2021/12/25 13:55:14;;;;;;;7.50;2.90;;;;;;;;;;5051235;28;20240;-79
2021/12/25 13:57:43;;;;;;;2.90;2.70;;;;;;;;;;5052222;28;20205;-79
2021/12/25 14:00:12;;;;;;;2.73;2.53;;;;;;;;;;5057568;28;20227;-82
2021/12/25 14:02:40;;;;;;;2.93;2.73;;;;;;;;;;5074045;28;20224;-78
2021/12/25 14:05:09;;;;;;;3.30;3.00;;;;;;;;;;5072115;28;20255;-79
2021/12/25 14:07:38;;;;;;;3.33;3.10;;;;;;;;;;5074642;28;20270;-79
2021/12/25 14:10:07;;;;;;;3.33;3.13;;;;;;;;;;5076371;28;20233;-79
2021/12/25 14:12:35;;;;;;;2.97;2.77;;;;;;;;;;5072030;28;20675;-79
2021/12/25 14:15:02;;;;;;;3.30;3.10;;;;;;;;;;5071841;28;20255;-79
2021/12/25 14:17:31;;;;;;;3.13;2.80;;;;;;;;;;5073587;28;20215;-80
2021/12/25 14:20:10;;;;;;;3.47;3.20;;;;;;;;;;5073390;28;20237;-79
2021/12/25 14:22:37;;;;;;;3.10;2.90;;;;;;;;;;5073167;28;20246;-80
2021/12/25 14:25:05;;;;;;;5.20;3.13;;;;;;;;;;5072838;28;20240;-80
2021/12/25 14:27:32;;;;;;;3.23;2.80;;;;;;;;;;5071720;28;20215;-80
2021/12/25 14:30:07;;;;;;;3.10;2.90;;;;;;;;;;5073019;28;20237;-81
2021/12/25 14:32:34;;;;;;;3.10;2.90;;;;;;;;;;5078671;28;20228;-79
2021/12/25 14:35:01;;;;;;;3.37;3.07;;;;;;;;;;5076744;28;20290;-79
2021/12/25 14:37:34;;;;;;;2.87;2.67;;;;;;;;;;5073636;28;20229;-81
2021/12/25 14:40:01;;;;;;;3.10;2.90;;;;;;;;;;5074155;28;20231;-80
2021/12/25 14:42:33;;;;;;;3.20;3.00;;;;;;;;;;5079294;28;20231;-80
2021/12/25 14:45:00;;;;;;;4.80;2.60;;;;;;;;;;5082773;28;20291;-80
2021/12/25 14:47:27;;;;;;;3.03;2.83;;;;;;;;;;5077371;28;20214;-80
2021/12/25 14:49:54;;;;;;;3.13;2.93;;;;;;;;;;5077222;28;20240;-79
2021/12/25 14:52:22;;;;;;;3.23;3.00;;;;;;;;;;5089672;28;20209;-81
2021/12/25 14:54:50;;;;;;;5.33;2.97;;;;;;;;;;5089103;28;20239;-80
2021/12/25 14:57:22;;;;;;;3.40;3.10;;;;;;;;;;5087828;28;20252;-80
2021/12/25 14:59:49;;;;;;;3.80;3.50;;;;;;;;;;5085345;28;20237;-80
2021/12/25 15:02:19;;;;;;;3.30;3.10;;;;;;;;;;5068396;28;20210;-79
2021/12/25 15:04:48;;;;;;;3.40;3.20;;;;;;;;;;5060865;28;20658;-80
2021/12/25 15:07:16;;;;;;;3.60;3.13;;;;;;;;;;5054633;28;20205;-79
2021/12/25 15:09:44;;;;;;;3.63;3.33;;;;;;;;;;5053973;28;20305;-81
2021/12/25 15:12:17;;;;;;;3.27;3.03;;;;;;;;;;5054423;28;20232;-80
2021/12/25 15:14:45;;;;;;;3.43;3.23;;;;;;;;;;5054561;28;20234;-82
2021/12/25 15:17:13;;;;;;;3.57;3.27;;;;;;;;;;5054037;28;20237;-82
2021/12/25 15:19:43;;;;;;;3.20;3.00;;;;;;;;;;5053975;28;20234;-83
2021/12/25 15:22:10;;;;;;;3.30;3.00;;;;;;;;;;5054216;28;20212;-83
2021/12/25 15:24:38;;;;;;;3.20;3.00;;;;;;;;;;5053512;28;20246;-83
2021/12/25 15:27:07;;;;;;;3.30;3.10;;;;;;;;;;5054096;28;20208;-83
2021/12/25 15:29:39;;;;;;;4.90;3.23;;;;;;;;;;5053468;28;20237;-83